Time;durP1;ratioP1;P1;durP2;ratioP2;P2;SDS_P1;SDS_P2;PMS_P1;PMS_P2;Temp;Humidity;BMP_temperature;BMP_pressure;BME280_temperature;BME280_humidity;BME280_pressure;Samples;Min_cycle;Max_cycle;Signal;HPM_P1;HPM_P2
2021/03/05 00:01:53;;;;;;;13.48;11.20;;;7.40;99.90;;;;;;4958522;28;20233;-77
2021/03/05 00:04:20;;;;;;;13.07;10.80;;;7.30;99.90;;;;;;4961806;28;20221;-77
2021/03/05 00:06:46;;;;;;;13.40;10.75;;;7.30;99.90;;;;;;4963638;28;20225;-77
2021/03/05 00:09:13;;;;;;;11.80;9.35;;;7.30;99.90;;;;;;4956089;28;20236;-78
2021/03/05 00:11:40;;;;;;;11.93;10.02;;;7.30;99.90;;;;;;4961507;28;20738;-77
2021/03/05 00:14:06;;;;;;;14.27;10.73;;;7.30;99.90;;;;;;4962155;28;20672;-78
2021/03/05 00:16:34;;;;;;;13.73;10.55;;;7.30;99.90;;;;;;4962422;28;20246;-77
2021/03/05 00:19:00;;;;;;;12.88;10.45;;;7.30;99.90;;;;;;4963146;28;20907;-77
2021/03/05 00:21:27;;;;;;;12.85;10.13;;;7.30;99.90;;;;;;4961903;28;20229;-78
2021/03/05 00:23:53;;;;;;;13.90;11.15;;;7.20;99.90;;;;;;4961125;28;20265;-78
2021/03/05 00:26:20;;;;;;;13.82;11.05;;;7.20;99.90;;;;;;4962046;28;20226;-77
2021/03/05 00:28:47;;;;;;;15.10;11.73;;;7.20;99.90;;;;;;4956039;28;20878;-78
2021/03/05 00:31:13;;;;;;;13.48;11.05;;;7.20;99.90;;;;;;4965935;28;20229;-78
2021/03/05 00:33:41;;;;;;;11.68;10.48;;;7.20;99.90;;;;;;4964732;28;20226;-77
2021/03/05 00:36:07;;;;;;;12.45;10.40;;;7.20;99.90;;;;;;4967823;28;20256;-77
2021/03/05 00:38:34;;;;;;;9.85;8.57;;;7.20;99.90;;;;;;4965545;28;20651;-79
2021/03/05 00:41:01;;;;;;;12.00;9.95;;;7.10;99.90;;;;;;4961634;28;20233;-77
2021/03/05 00:43:27;;;;;;;13.02;10.65;;;7.10;99.90;;;;;;4964097;28;20218;-78
2021/03/05 00:45:54;;;;;;;11.40;9.75;;;7.10;99.90;;;;;;4967166;28;21072;-77
2021/03/05 00:48:20;;;;;;;15.38;11.10;;;7.00;99.90;;;;;;4964266;28;20249;-77
2021/03/05 00:50:49;;;;;;;13.20;10.80;;;7.00;99.90;;;;;;4967781;28;20225;-78
2021/03/05 00:53:15;;;;;;;12.75;10.48;;;7.00;99.90;;;;;;4968782;28;20229;-77
2021/03/05 00:55:42;;;;;;;14.38;11.52;;;6.90;99.90;;;;;;4966566;28;20229;-77
2021/03/05 00:58:09;;;;;;;12.55;9.85;;;6.90;99.90;;;;;;4964929;28;20595;-77
2021/03/05 01:00:36;;;;;;;13.07;10.70;;;6.80;99.90;;;;;;4964683;28;20237;-78
2021/03/05 01:03:03;;;;;;;11.82;10.50;;;6.80;99.90;;;;;;4964330;28;20226;-77
2021/03/05 01:05:29;;;;;;;14.20;10.48;;;6.80;99.90;;;;;;4964334;28;20592;-78
2021/03/05 01:07:57;;;;;;;12.57;10.75;;;6.70;99.90;;;;;;4961541;28;20587;-77
2021/03/05 01:10:24;;;;;;;13.45;10.50;;;6.70;99.90;;;;;;4969502;28;20236;-77
2021/03/05 01:12:50;;;;;;;13.57;10.88;;;6.70;99.90;;;;;;4968419;28;20632;-77
2021/03/05 01:15:17;;;;;;;12.10;9.82;;;6.60;99.90;;;;;;4963109;28;20905;-77
2021/03/05 01:17:44;;;;;;;13.70;11.45;;;6.60;99.90;;;;;;4962631;28;20225;-77
2021/03/05 01:20:14;;;;;;;11.43;9.38;;;6.60;99.90;;;;;;4965427;28;20237;-78
2021/03/05 01:22:40;;;;;;;13.13;10.55;;;6.50;99.90;;;;;;4965368;28;20628;-77
2021/03/05 01:25:10;;;;;;;13.77;9.95;;;6.50;99.90;;;;;;4964805;28;20229;-77
2021/03/05 01:27:37;;;;;;;14.05;10.27;;;6.50;99.90;;;;;;4965749;28;20225;-78
2021/03/05 01:30:05;;;;;;;13.82;10.52;;;6.40;99.90;;;;;;4963092;28;20229;-78
2021/03/05 01:32:31;;;;;;;13.57;11.05;;;6.40;99.90;;;;;;4961151;28;20256;-77
2021/03/05 01:34:58;;;;;;;14.35;12.02;;;6.40;99.90;;;;;;4962575;28;20221;-77
2021/03/05 01:37:24;;;;;;;13.65;11.40;;;6.30;99.90;;;;;;4962598;28;20233;-78
2021/03/05 01:39:51;;;;;;;16.85;12.57;;;6.30;99.90;;;;;;4962237;28;20222;-77
2021/03/05 01:42:18;;;;;;;13.27;10.80;;;6.30;99.90;;;;;;4964470;28;20240;-78
2021/03/05 01:44:45;;;;;;;12.75;11.20;;;6.30;99.90;;;;;;4965392;28;20221;-78
2021/03/05 01:47:12;;;;;;;15.13;11.25;;;6.40;99.90;;;;;;4962081;28;20221;-78
2021/03/05 01:49:38;;;;;;;15.18;11.20;;;6.40;99.90;;;;;;4965672;28;20234;-77
2021/03/05 01:52:05;;;;;;;13.77;11.80;;;6.40;99.90;;;;;;4960948;28;20225;-77
2021/03/05 01:54:32;;;;;;;13.80;11.55;;;6.40;99.90;;;;;;4967865;28;20221;-77
2021/03/05 01:56:58;;;;;;;16.20;12.48;;;6.40;99.90;;;;;;4960810;28;20221;-77
2021/03/05 01:59:29;;;;;;;14.75;12.02;;;6.40;99.90;;;;;;4965181;28;20225;-77
2021/03/05 02:01:58;;;;;;;13.20;11.68;;;6.40;99.90;;;;;;4966352;28;20576;-78
2021/03/05 02:04:24;;;;;;;13.40;11.88;;;6.40;99.90;;;;;;4960370;28;20344;-77
2021/03/05 02:06:51;;;;;;;14.90;11.70;;;6.30;99.90;;;;;;4960442;28;20689;-77
2021/03/05 02:09:18;;;;;;;12.65;11.15;;;6.30;99.90;;;;;;4958700;28;20222;-77
2021/03/05 02:11:44;;;;;;;14.40;11.88;;;6.20;99.90;;;;;;4963518;28;20229;-77
2021/03/05 02:14:11;;;;;;;14.13;11.50;;;6.20;99.90;;;;;;4966064;28;20284;-77
2021/03/05 02:16:50;;;;;;;13.65;11.38;;;6.20;99.90;;;;;;4963167;28;20320;-77
2021/03/05 02:19:40;;;;;;;14.10;12.18;;;6.10;99.90;;;;;;4963140;28;20814;-77
2021/03/05 02:22:21;;;;;;;16.38;13.23;;;6.00;99.90;;;;;;4962099;28;20676;-78
2021/03/05 02:25:17;;;;;;;14.30;11.57;;;6.00;99.90;;;;;;4966716;28;20242;-78
2021/03/05 02:28:12;;;;;;;13.02;11.02;;;5.90;99.90;;;;;;4960478;28;20296;-77
2021/03/05 02:31:14;;;;;;;13.32;11.20;;;5.90;99.90;;;;;;4962840;28;20225;-77
2021/03/05 02:33:48;;;;;;;14.18;10.85;;;5.90;99.90;;;;;;4959594;28;20225;-77
2021/03/05 02:36:20;;;;;;;13.05;11.02;;;6.00;99.90;;;;;;4963969;28;20224;-78
2021/03/05 02:39:01;;;;;;;13.55;10.93;;;6.00;99.90;;;;;;4966704;28;20225;-77
2021/03/05 02:41:30;;;;;;;15.05;11.88;;;6.00;99.90;;;;;;4967088;28;20220;-77
2021/03/05 02:43:58;;;;;;;16.05;12.13;;;6.00;99.90;;;;;;4961466;28;20249;-77
2021/03/05 02:46:27;;;;;;;13.52;11.70;;;6.00;99.90;;;;;;4964131;28;20749;-77
2021/03/05 02:49:01;;;;;;;13.93;11.38;;;6.00;99.90;;;;;;4961606;28;20262;-77
2021/03/05 02:51:30;;;;;;;16.23;12.63;;;5.90;99.90;;;;;;4961141;28;20870;-78
2021/03/05 02:54:00;;;;;;;14.05;11.57;;;5.90;99.90;;;;;;4955798;28;20317;-77
2021/03/05 02:56:29;;;;;;;16.50;12.15;;;5.90;99.90;;;;;;4956454;28;20225;-77
2021/03/05 02:58:56;;;;;;;14.60;11.48;;;5.90;99.90;;;;;;4956580;28;20237;-77
2021/03/05 03:01:25;;;;;;;15.07;11.60;;;5.90;99.90;;;;;;4956147;28;20230;-78
2021/03/05 03:03:54;;;;;;;14.18;11.57;;;5.90;99.90;;;;;;4956629;28;20241;-77
2021/03/05 03:06:23;;;;;;;15.43;11.77;;;5.90;99.90;;;;;;4961183;28;20222;-78
2021/03/05 03:08:51;;;;;;;16.33;11.55;;;5.90;99.90;;;;;;4959281;28;20221;-77
2021/03/05 03:11:19;;;;;;;14.13;12.00;;;5.90;99.90;;;;;;4958256;28;20616;-77
2021/03/05 03:13:47;;;;;;;14.23;11.00;;;5.90;99.90;;;;;;4959054;28;20763;-77
2021/03/05 03:16:17;;;;;;;13.55;11.73;;;5.90;99.90;;;;;;4960087;28;20230;-77
2021/03/05 03:18:45;;;;;;;14.60;11.82;;;5.90;99.90;;;;;;4963445;28;20231;-77
2021/03/05 03:21:12;;;;;;;16.23;12.40;;;5.80;99.90;;;;;;4963867;28;20225;-77
2021/03/05 03:23:41;;;;;;;13.77;12.13;;;5.80;99.90;;;;;;4949262;28;20229;-77
2021/03/05 03:29:29;;;;;;;12.35;10.15;;;5.80;99.90;;;;;;4949618;28;20233;-78
2021/03/05 03:31:55;;;;;;;14.10;11.52;;;5.70;99.90;;;;;;4952875;28;21015;-77
2021/03/05 03:34:23;;;;;;;14.00;11.60;;;5.80;99.90;;;;;;4955662;28;20767;-77
2021/03/05 03:36:51;;;;;;;13.13;11.75;;;5.80;99.90;;;;;;4959349;28;20248;-77
2021/03/05 03:39:19;;;;;;;14.20;12.70;;;5.80;99.90;;;;;;4954460;28;20633;-77
2021/03/05 03:41:45;;;;;;;13.32;11.23;;;5.70;99.90;;;;;;4957964;28;20722;-77
2021/03/05 03:44:13;;;;;;;17.83;13.07;;;5.60;99.90;;;;;;4955930;28;20234;-78
2021/03/05 03:46:47;;;;;;;14.82;11.95;;;5.60;99.90;;;;;;4957605;28;20237;-78
2021/03/05 03:49:20;;;;;;;14.75;12.30;;;5.60;99.90;;;;;;4951489;28;20706;-77
2021/03/05 03:51:53;;;;;;;15.35;12.90;;;5.50;99.90;;;;;;4954997;28;20232;-78
2021/03/05 03:54:21;;;;;;;16.38;12.68;;;5.50;99.90;;;;;;4954012;28;20256;-77
2021/03/05 03:56:55;;;;;;;14.50;12.85;;;5.50;99.90;;;;;;4960214;28;20260;-78
2021/03/05 03:59:25;;;;;;;13.45;11.82;;;5.50;99.90;;;;;;4958033;28;20699;-77
2021/03/05 04:01:55;;;;;;;12.88;11.48;;;5.50;99.90;;;;;;4959347;28;20245;-77
2021/03/05 04:04:22;;;;;;;16.35;12.95;;;5.50;99.90;;;;;;4961696;28;20222;-78
2021/03/05 04:06:52;;;;;;;16.05;14.38;;;5.50;99.90;;;;;;4962043;28;20260;-77
2021/03/05 04:09:21;;;;;;;15.38;12.90;;;5.40;99.90;;;;;;4953438;28;20261;-77
2021/03/05 04:11:48;;;;;;;15.82;12.60;;;5.40;99.90;;;;;;4958883;28;20237;-77
2021/03/05 04:14:15;;;;;;;16.75;11.88;;;5.40;99.90;;;;;;4964862;28;20229;-78
2021/03/05 04:16:42;;;;;;;15.73;11.85;;;5.40;99.90;;;;;;4967039;28;20233;-77
2021/03/05 04:19:10;;;;;;;13.35;11.90;;;5.30;99.90;;;;;;4961586;28;20232;-77
2021/03/05 04:21:37;;;;;;;14.80;12.20;;;5.30;99.90;;;;;;4961863;28;20225;-77
2021/03/05 04:24:04;;;;;;;16.65;13.38;;;5.20;99.90;;;;;;4961715;28;20240;-77
2021/03/05 04:26:32;;;;;;;15.73;13.38;;;5.20;99.90;;;;;;4963291;28;20225;-77
2021/03/05 04:28:59;;;;;;;15.20;13.00;;;5.20;99.90;;;;;;4961567;28;20253;-77
2021/03/05 04:31:25;;;;;;;16.02;12.68;;;5.20;99.90;;;;;;4966351;28;20229;-77
2021/03/05 04:33:52;;;;;;;15.20;12.77;;;5.20;99.90;;;;;;4961167;28;20222;-77
2021/03/05 04:36:19;;;;;;;15.18;13.32;;;5.20;99.90;;;;;;4963046;28;20225;-77
2021/03/05 04:38:45;;;;;;;15.48;13.43;;;5.20;99.90;;;;;;4966035;28;20221;-77
2021/03/05 04:41:12;;;;;;;14.45;12.95;;;5.20;99.90;;;;;;4963929;28;20240;-77
2021/03/05 04:43:39;;;;;;;15.43;12.95;;;5.20;99.90;;;;;;4962417;28;20225;-77
2021/03/05 04:46:06;;;;;;;14.38;12.75;;;5.20;99.90;;;;;;4966499;28;20747;-77
2021/03/05 04:48:32;;;;;;;16.90;13.57;;;5.30;99.90;;;;;;4961236;28;20222;-78
2021/03/05 04:50:59;;;;;;;19.95;15.00;;;5.30;99.90;;;;;;4966380;28;20283;-77
2021/03/05 04:53:26;;;;;;;17.67;14.70;;;5.20;99.90;;;;;;4967250;28;20611;-77
2021/03/05 04:55:52;;;;;;;17.65;14.35;;;5.20;99.90;;;;;;4959990;28;20226;-77
2021/03/05 04:58:19;;;;;;;17.23;13.90;;;5.20;99.90;;;;;;4959764;28;20225;-77
2021/03/05 05:00:46;;;;;;;16.90;14.63;;;5.20;99.90;;;;;;4962959;28;20224;-77
2021/03/05 05:03:13;;;;;;;16.05;13.52;;;5.10;99.90;;;;;;4963733;28;20225;-77
2021/03/05 05:05:40;;;;;;;15.32;13.38;;;5.10;99.90;;;;;;4962235;28;20228;-77
2021/03/05 05:08:07;;;;;;;14.63;11.70;;;5.10;99.90;;;;;;4964549;28;20249;-78
2021/03/05 05:10:35;;;;;;;15.45;12.70;;;5.10;99.90;;;;;;4965265;28;20225;-77
2021/03/05 05:13:01;;;;;;;17.75;15.02;;;5.10;99.90;;;;;;4958045;28;20288;-77
2021/03/05 05:15:28;;;;;;;18.73;15.23;;;5.10;99.90;;;;;;4959223;28;20217;-77
2021/03/05 05:17:55;;;;;;;17.55;14.63;;;5.00;99.90;;;;;;4962301;28;20236;-77
2021/03/05 05:20:22;;;;;;;17.50;13.82;;;5.00;99.90;;;;;;4963915;28;20222;-77
2021/03/05 05:22:48;;;;;;;15.25;13.60;;;5.00;99.90;;;;;;4962045;28;20221;-78
2021/03/05 05:25:15;;;;;;;14.38;11.90;;;5.00;99.90;;;;;;4968017;28;20225;-77
2021/03/05 05:27:42;;;;;;;14.10;12.35;;;5.00;99.90;;;;;;4964300;28;20226;-77
2021/03/05 05:30:10;;;;;;;15.88;12.48;;;4.90;99.90;;;;;;4966878;28;20252;-77
2021/03/05 05:32:36;;;;;;;14.25;11.90;;;4.90;99.90;;;;;;4964842;28;20228;-77
2021/03/05 05:35:05;;;;;;;14.70;11.88;;;4.90;99.90;;;;;;4959212;28;20226;-77
2021/03/05 05:37:31;;;;;;;13.90;12.43;;;4.90;99.90;;;;;;4965301;28;20245;-77
2021/03/05 05:39:58;;;;;;;16.02;13.50;;;4.90;99.90;;;;;;4962201;28;20229;-77
2021/03/05 05:42:24;;;;;;;14.85;12.90;;;4.80;99.90;;;;;;4961361;28;20230;-77
2021/03/05 05:44:51;;;;;;;14.32;12.32;;;4.80;99.90;;;;;;4962235;28;20224;-77
2021/03/05 05:47:18;;;;;;;20.50;13.05;;;4.80;99.90;;;;;;4967874;28;20229;-78
2021/03/05 05:49:46;;;;;;;14.98;13.35;;;4.80;99.90;;;;;;4962610;28;20276;-77
2021/03/05 05:52:19;;;;;;;13.80;12.38;;;4.70;99.90;;;;;;4961874;28;20230;-77
2021/03/05 05:54:47;;;;;;;16.88;13.52;;;4.70;99.90;;;;;;4961455;28;20230;-77
2021/03/05 05:57:14;;;;;;;16.92;13.48;;;4.60;99.90;;;;;;4947500;28;20241;-77
2021/03/05 05:59:41;;;;;;;16.20;13.07;;;4.60;99.90;;;;;;4960479;28;20246;-77
2021/03/05 06:02:10;;;;;;;15.43;12.82;;;4.60;99.90;;;;;;4964914;28;20229;-77
2021/03/05 06:04:37;;;;;;;17.00;14.60;;;4.70;99.90;;;;;;4959665;28;20221;-77
2021/03/05 06:07:04;;;;;;;16.77;14.18;;;4.70;99.90;;;;;;4954237;28;20222;-77
2021/03/05 06:09:32;;;;;;;19.35;15.30;;;4.60;99.90;;;;;;4964306;28;20591;-77
2021/03/05 06:11:59;;;;;;;15.40;13.68;;;4.60;99.90;;;;;;4963670;28;20313;-77
2021/03/05 06:14:26;;;;;;;18.77;14.73;;;4.70;99.90;;;;;;4965607;28;20217;-77
2021/03/05 06:16:54;;;;;;;16.27;13.95;;;4.70;99.90;;;;;;4968490;28;20233;-77
2021/03/05 06:19:22;;;;;;;14.95;13.32;;;4.70;99.90;;;;;;4962466;28;20221;-77
2021/03/05 06:21:49;;;;;;;15.13;12.50;;;4.70;99.90;;;;;;4962849;28;20303;-77
2021/03/05 06:24:17;;;;;;;14.75;12.43;;;4.70;99.90;;;;;;4966645;28;20230;-77
2021/03/05 06:26:53;;;;;;;14.52;12.85;;;4.70;99.90;;;;;;4964154;28;20232;-78
2021/03/05 06:29:22;;;;;;;14.85;12.25;;;4.80;99.90;;;;;;4956794;28;20229;-77
2021/03/05 06:31:57;;;;;;;14.85;12.48;;;4.90;99.90;;;;;;4956968;28;20234;-77
2021/03/05 06:34:24;;;;;;;17.10;12.98;;;4.90;99.90;;;;;;4954533;28;20636;-78
2021/03/05 06:37:01;;;;;;;16.30;13.10;;;4.90;99.90;;;;;;4954182;28;20232;-78
2021/03/05 06:39:29;;;;;;;15.27;12.40;;;4.90;99.90;;;;;;4954011;28;20224;-77
2021/03/05 06:42:01;;;;;;;13.13;11.27;;;4.90;99.90;;;;;;4952240;28;20471;-77
2021/03/05 06:44:31;;;;;;;12.65;11.35;;;4.90;99.90;;;;;;4954771;28;20229;-78
2021/03/05 06:47:06;;;;;;;14.63;12.55;;;4.90;99.90;;;;;;4958124;28;20707;-78
2021/03/05 06:49:33;;;;;;;16.95;13.48;;;5.00;99.90;;;;;;4956579;28;20300;-78
2021/03/05 06:52:00;;;;;;;14.45;12.20;;;5.00;99.90;;;;;;4958836;28;20230;-77
2021/03/05 06:54:29;;;;;;;13.48;11.48;;;5.10;99.90;;;;;;4949208;28;20236;-78
2021/03/05 06:56:56;;;;;;;15.52;11.50;;;5.20;99.90;;;;;;4955715;28;20244;-77
2021/03/05 06:59:24;;;;;;;13.23;11.80;;;5.20;99.90;;;;;;4953288;28;20412;-79
2021/03/05 07:01:56;;;;;;;15.55;12.30;;;5.50;99.90;;;;;;4952999;28;20619;-78
2021/03/05 07:04:25;;;;;;;15.20;12.20;;;5.60;99.90;;;;;;4953669;28;20232;-78
2021/03/05 07:07:03;;;;;;;15.32;12.05;;;6.00;99.90;;;;;;4958503;28;20225;-77
2021/03/05 07:09:31;;;;;;;18.05;13.25;;;6.50;99.90;;;;;;4957004;28;20224;-78
2021/03/05 07:15:21;;;;;;;18.00;14.63;;;7.40;99.90;;;;;;4958996;28;20815;-78
2021/03/05 07:17:47;;;;;;;19.90;14.77;;;7.50;99.90;;;;;;4955498;28;20755;-79
2021/03/05 07:20:15;;;;;;;16.80;13.05;;;7.80;99.90;;;;;;4959446;28;20229;-77
2021/03/05 07:22:47;;;;;;;18.58;13.57;;;8.20;99.90;;;;;;4953064;28;20221;-78
2021/03/05 07:25:17;;;;;;;16.60;13.18;;;8.60;99.90;;;;;;4959089;28;20221;-77
2021/03/05 07:27:46;;;;;;;14.50;13.00;;;9.00;99.90;;;;;;4952473;28;20642;-78
2021/03/05 07:30:14;;;;;;;18.58;13.63;;;9.40;99.90;;;;;;4960509;28;20901;-78
2021/03/05 07:32:47;;;;;;;17.92;13.77;;;9.60;99.90;;;;;;4959110;28;20679;-77
2021/03/05 07:35:19;;;;;;;18.25;13.30;;;9.90;99.90;;;;;;4958254;28;20233;-78
2021/03/05 07:37:49;;;;;;;16.92;13.70;;;10.10;99.90;;;;;;4957832;28;20230;-77
2021/03/05 07:40:18;;;;;;;16.05;13.85;;;10.40;99.90;;;;;;4958975;28;20507;-77
2021/03/05 07:42:45;;;;;;;14.75;12.88;;;10.50;99.90;;;;;;4956079;28;20229;-78
2021/03/05 07:45:14;;;;;;;14.20;12.52;;;10.20;99.90;;;;;;4961913;28;20221;-78
2021/03/05 07:47:44;;;;;;;17.15;14.02;;;10.10;99.90;;;;;;4960155;28;20237;-78
2021/03/05 07:50:13;;;;;;;13.93;12.43;;;10.20;99.90;;;;;;4963776;28;20233;-77
2021/03/05 07:52:40;;;;;;;16.55;12.40;;;10.50;99.90;;;;;;4959999;28;20222;-77
2021/03/05 07:55:08;;;;;;;13.43;11.57;;;10.80;99.90;;;;;;4960784;28;20237;-78
2021/03/05 07:57:46;;;;;;;14.07;12.57;;;11.20;99.90;;;;;;4955133;28;20450;-77
2021/03/05 08:00:15;;;;;;;15.18;12.15;;;11.70;99.90;;;;;;4954866;28;20229;-78
2021/03/05 08:02:56;;;;;;;14.52;12.75;;;12.00;99.90;;;;;;4954514;28;20225;-77
2021/03/05 08:05:43;;;;;;;14.90;13.23;;;12.40;99.90;;;;;;4959070;28;20720;-78
2021/03/05 08:08:13;;;;;;;15.35;11.90;;;12.40;99.90;;;;;;4959850;28;20279;-79
2021/03/05 08:10:41;;;;;;;12.73;11.43;;;12.50;99.90;;;;;;4960375;28;20228;-79
2021/03/05 08:13:51;;;;;;;13.48;12.07;;;12.60;99.90;;;;;;4948781;28;20229;-79
2021/03/05 08:16:38;;;;;;;15.02;11.82;;;12.70;99.90;;;;;;4962845;28;20256;-79
2021/03/05 08:19:47;;;;;;;17.25;12.65;;;12.90;99.90;;;;;;4957481;28;20235;-78
2021/03/05 08:22:18;;;;;;;17.35;12.13;;;13.30;99.90;;;;;;4956000;28;20230;-77
2021/03/05 08:24:45;;;;;;;13.48;11.38;;;13.50;99.90;;;;;;4963829;28;20253;-79
2021/03/05 08:27:21;;;;;;;15.65;12.70;;;13.70;99.90;;;;;;4959852;28;20236;-78
2021/03/05 08:29:56;;;;;;;16.23;13.07;;;14.00;99.90;;;;;;4961121;28;20581;-78
2021/03/05 08:32:45;;;;;;;13.38;11.98;;;14.00;99.90;;;;;;4959351;28;20697;-77
2021/03/05 08:35:13;;;;;;;16.55;13.15;;;14.20;99.90;;;;;;4956277;28;20249;-77
2021/03/05 08:37:42;;;;;;;15.45;12.32;;;14.40;99.90;;;;;;4955058;28;20233;-79
2021/03/05 08:40:28;;;;;;;15.27;12.27;;;14.30;99.90;;;;;;4959125;28;20232;-79
2021/03/05 08:42:57;;;;;;;16.13;12.57;;;14.50;99.90;;;;;;4957556;28;20218;-78
2021/03/05 08:45:26;;;;;;;14.30;12.25;;;14.50;99.90;;;;;;4957886;28;20233;-76
2021/03/05 08:47:54;;;;;;;16.13;12.52;;;14.30;99.90;;;;;;4954414;28;20241;-77
2021/03/05 08:50:23;;;;;;;19.63;13.45;;;14.20;99.90;;;;;;4952547;28;20296;-76
2021/03/05 08:52:52;;;;;;;15.60;12.07;;;14.00;99.90;;;;;;4959225;28;20229;-76
2021/03/05 08:55:21;;;;;;;15.13;12.45;;;14.10;99.90;;;;;;4952932;28;20230;-78
2021/03/05 08:57:49;;;;;;;14.13;12.05;;;14.30;99.90;;;;;;4955096;28;20688;-79
2021/03/05 09:00:17;;;;;;;16.00;14.00;;;14.50;99.90;;;;;;4958872;28;20233;-77
2021/03/05 09:02:46;;;;;;;12.65;11.35;;;14.40;99.90;;;;;;4941999;28;20741;-78
2021/03/05 09:05:14;;;;;;;14.02;11.35;;;14.30;99.90;;;;;;4959637;28;21578;-77
2021/03/05 09:07:54;;;;;;;14.65;12.57;;;14.70;99.90;;;;;;4962665;28;20194;-78
2021/03/05 09:10:22;;;;;;;17.35;12.40;;;15.00;99.90;;;;;;4962212;28;20597;-77
2021/03/05 09:12:59;;;;;;;15.77;12.82;;;15.20;99.90;;;;;;4966826;28;20260;-78
2021/03/05 09:15:30;;;;;;;16.65;13.23;;;15.20;99.90;;;;;;4962102;28;20201;-78
2021/03/05 09:17:57;;;;;;;15.25;12.68;;;15.30;99.90;;;;;;4959070;28;20226;-79
2021/03/05 09:20:34;;;;;;;13.90;12.40;;;15.60;99.90;;;;;;4957194;28;20206;-79
2021/03/05 09:23:18;;;;;;;16.20;13.30;;;15.80;99.90;;;;;;4959602;28;20668;-78
2021/03/05 09:25:52;;;;;;;16.88;13.25;;;16.00;98.40;;;;;;4961594;28;21239;-78
2021/03/05 09:28:22;;;;;;;16.27;13.20;;;15.80;98.70;;;;;;4961857;28;20209;-77
2021/03/05 09:30:51;;;;;;;14.75;13.00;;;15.50;99.10;;;;;;4961733;28;20256;-78
2021/03/05 09:33:18;;;;;;;17.98;13.32;;;15.50;99.20;;;;;;4958450;28;20240;-79
2021/03/05 09:35:44;;;;;;;15.02;13.43;;;15.40;98.90;;;;;;4957847;28;20238;-78
2021/03/05 09:38:17;;;;;;;14.32;12.80;;;15.50;98.40;;;;;;4960090;28;20237;-78
2021/03/05 09:40:44;;;;;;;15.95;13.48;;;15.40;98.20;;;;;;4959971;28;20834;-77
2021/03/05 09:43:17;;;;;;;16.52;13.93;;;15.30;98.70;;;;;;4962608;28;20225;-78
2021/03/05 09:45:47;;;;;;;15.57;13.30;;;15.30;98.90;;;;;;4963460;28;20205;-75
2021/03/05 09:48:28;;;;;;;17.05;13.65;;;15.10;99.00;;;;;;4958585;28;20200;-76
2021/03/05 09:51:00;;;;;;;15.95;13.52;;;15.20;98.70;;;;;;4942741;28;20264;-78
2021/03/05 09:53:31;;;;;;;15.05;12.38;;;15.40;98.30;;;;;;4956204;28;20194;-78
2021/03/05 09:56:01;;;;;;;14.68;12.50;;;15.80;99.70;;;;;;4964056;28;20682;-78
2021/03/05 09:58:27;;;;;;;16.73;13.63;;;16.10;98.20;;;;;;4961420;28;20586;-78
2021/03/05 10:00:55;;;;;;;17.77;14.10;;;16.10;97.60;;;;;;4957174;28;20237;-78
2021/03/05 10:03:23;;;;;;;15.65;13.68;;;16.00;97.70;;;;;;4957481;28;20857;-78
2021/03/05 10:05:50;;;;;;;18.88;14.75;;;16.00;97.70;;;;;;4956440;28;20221;-77
2021/03/05 10:08:20;;;;;;;15.35;13.18;;;16.00;98.40;;;;;;4948176;28;20277;-77
2021/03/05 10:11:03;;;;;;;15.52;13.18;;;16.20;98.00;;;;;;4949943;28;20230;-77
2021/03/05 10:13:56;;;;;;;16.92;13.82;;;16.40;98.00;;;;;;4948571;28;20234;-77
2021/03/05 10:16:29;;;;;;;14.82;13.23;;;16.50;97.20;;;;;;4903725;28;20226;-78
2021/03/05 10:19:02;;;;;;;15.68;13.45;;;16.90;97.60;;;;;;4961371;28;20222;-77
2021/03/05 10:21:29;;;;;;;17.15;14.27;;;17.00;96.80;;;;;;4960926;28;20226;-76
2021/03/05 10:23:56;;;;;;;15.20;13.25;;;17.00;97.20;;;;;;4962080;28;20860;-77
2021/03/05 10:26:26;;;;;;;16.75;13.73;;;16.90;96.40;;;;;;4959168;28;20252;-77
2021/03/05 10:28:55;;;;;;;17.63;13.70;;;17.00;96.80;;;;;;4957382;28;20233;-76
2021/03/05 10:31:38;;;;;;;16.55;13.00;;;17.20;96.50;;;;;;4955963;28;20249;-77
2021/03/05 10:34:05;;;;;;;18.42;14.40;;;17.30;96.30;;;;;;4949167;28;20284;-77
2021/03/05 10:36:31;;;;;;;16.63;14.85;;;17.30;95.90;;;;;;4957029;28;20230;-77
2021/03/05 10:38:58;;;;;;;17.30;14.23;;;17.20;95.80;;;;;;4963533;28;20565;-77
2021/03/05 10:41:25;;;;;;;17.65;14.98;;;17.10;96.10;;;;;;4961544;28;20226;-77
2021/03/05 10:43:52;;;;;;;15.77;13.55;;;17.20;95.40;;;;;;4958030;28;20229;-79
2021/03/05 10:46:19;;;;;;;18.85;14.43;;;17.00;95.60;;;;;;4962532;28;20226;-77
2021/03/05 10:48:46;;;;;;;14.60;13.10;;;16.80;95.50;;;;;;4961370;28;20619;-76
2021/03/05 10:51:12;;;;;;;18.33;15.05;;;16.90;96.30;;;;;;4959286;28;20569;-77
2021/03/05 10:53:39;;;;;;;16.85;14.07;;;17.00;96.30;;;;;;4961094;28;20243;-76
2021/03/05 10:56:06;;;;;;;18.48;15.07;;;17.00;96.70;;;;;;4958107;28;20217;-77
2021/03/05 10:58:34;;;;;;;15.38;13.77;;;17.10;95.40;;;;;;4960469;28;20711;-77
2021/03/05 11:01:01;;;;;;;15.70;14.00;;;17.20;95.60;;;;;;4959573;28;20229;-79
2021/03/05 11:03:27;;;;;;;15.05;13.45;;;17.00;95.50;;;;;;4967851;28;20228;-77
2021/03/05 11:05:54;;;;;;;18.20;15.32;;;16.80;96.00;;;;;;4968087;28;20225;-77
2021/03/05 11:08:21;;;;;;;18.33;14.27;;;16.50;95.40;;;;;;4962268;28;20225;-78
2021/03/05 11:10:47;;;;;;;18.83;15.32;;;16.50;96.20;;;;;;4959369;28;20233;-79
2021/03/05 11:13:14;;;;;;;17.38;13.45;;;16.80;95.20;;;;;;4953896;28;20719;-79
2021/03/05 11:15:41;;;;;;;18.23;14.27;;;16.80;95.30;;;;;;4953555;28;20877;-78
2021/03/05 11:18:08;;;;;;;15.27;13.60;;;16.90;94.80;;;;;;4960475;28;20229;-77
2021/03/05 11:20:35;;;;;;;15.60;13.38;;;17.10;94.90;;;;;;4955161;28;20221;-79
2021/03/05 11:23:01;;;;;;;15.68;12.70;;;17.30;94.90;;;;;;4958294;28;20763;-77
2021/03/05 11:25:28;;;;;;;18.48;12.63;;;17.10;94.20;;;;;;4959595;28;20217;-77
2021/03/05 11:27:54;;;;;;;18.13;14.13;;;16.80;94.50;;;;;;4952864;28;20229;-79
2021/03/05 11:30:22;;;;;;;18.30;14.95;;;16.90;95.20;;;;;;4955144;28;20218;-79
2021/03/05 11:32:50;;;;;;;15.55;13.52;;;16.80;95.20;;;;;;4955458;28;20225;-77
2021/03/05 11:35:16;;;;;;;13.90;11.40;;;16.90;95.20;;;;;;4958641;28;20233;-78
2021/03/05 11:37:43;;;;;;;14.00;12.15;;;16.90;93.90;;;;;;4958557;28;20623;-78
2021/03/05 11:40:10;;;;;;;17.52;11.98;;;17.10;94.30;;;;;;4953278;28;21191;-80
2021/03/05 11:42:37;;;;;;;16.60;14.05;;;17.20;93.90;;;;;;4957769;28;20585;-78
2021/03/05 11:45:05;;;;;;;13.73;11.98;;;17.60;94.10;;;;;;4940648;28;20766;-79
2021/03/05 11:47:33;;;;;;;14.18;12.38;;;17.90;93.70;;;;;;4960633;28;20241;-78
2021/03/05 11:50:01;;;;;;;15.68;12.57;;;18.20;93.70;;;;;;4955054;28;20233;-80
2021/03/05 11:52:27;;;;;;;14.48;12.05;;;18.10;93.00;;;;;;4953393;28;20230;-80
2021/03/05 11:54:56;;;;;;;12.75;11.30;;;17.70;93.30;;;;;;4955474;28;20591;-79
2021/03/05 11:57:23;;;;;;;13.70;12.15;;;17.80;93.40;;;;;;4956810;28;20237;-79
2021/03/05 11:59:49;;;;;;;14.75;12.52;;;17.90;92.80;;;;;;4952689;28;20225;-79
2021/03/05 12:02:16;;;;;;;13.80;11.82;;;17.80;92.80;;;;;;4956388;28;20241;-77
2021/03/05 12:04:42;;;;;;;14.00;12.43;;;17.60;93.00;;;;;;4951404;28;20595;-78
2021/03/05 12:07:10;;;;;;;13.32;11.10;;;17.70;93.00;;;;;;4953814;28;20233;-80
2021/03/05 12:09:37;;;;;;;16.08;11.90;;;17.80;93.10;;;;;;4956104;28;20637;-79
2021/03/05 12:12:04;;;;;;;12.98;11.57;;;18.00;92.40;;;;;;4958293;28;20625;-80
2021/03/05 12:14:31;;;;;;;14.02;12.52;;;18.30;93.00;;;;;;4959835;28;20700;-78
2021/03/05 12:16:57;;;;;;;15.40;11.50;;;18.60;93.60;;;;;;4955421;28;20586;-78
2021/03/05 12:19:24;;;;;;;16.50;12.57;;;18.50;91.50;;;;;;4960503;28;20712;-80
2021/03/05 12:21:51;;;;;;;15.43;11.63;;;18.10;92.60;;;;;;4961197;28;20221;-78
2021/03/05 12:24:18;;;;;;;14.25;12.00;;;18.00;92.00;;;;;;4960962;28;20280;-79
2021/03/05 12:26:45;;;;;;;11.82;10.30;;;17.80;92.60;;;;;;4966678;28;20233;-78
2021/03/05 12:29:12;;;;;;;13.98;11.25;;;18.20;93.10;;;;;;4965733;28;20226;-79
2021/03/05 12:31:38;;;;;;;13.07;11.27;;;18.40;91.90;;;;;;4967633;28;20228;-78
2021/03/05 12:34:05;;;;;;;14.55;12.40;;;18.50;91.80;;;;;;4965135;28;20221;-77
2021/03/05 12:36:32;;;;;;;14.05;11.32;;;18.40;91.30;;;;;;4958739;28;20230;-79
2021/03/05 12:38:58;;;;;;;14.23;12.20;;;18.30;91.70;;;;;;4962789;28;20236;-78
2021/03/05 12:41:26;;;;;;;13.05;10.10;;;18.30;91.30;;;;;;4961294;28;20310;-77
2021/03/05 12:43:52;;;;;;;14.40;10.55;;;18.30;91.80;;;;;;4961029;28;20224;-77
2021/03/05 12:46:19;;;;;;;11.05;9.93;;;18.40;91.50;;;;;;4960391;28;20256;-80
2021/03/05 12:48:45;;;;;;;11.70;9.35;;;18.50;91.10;;;;;;4960906;28;20222;-79
2021/03/05 12:51:12;;;;;;;11.05;9.90;;;18.40;91.30;;;;;;4958614;28;20728;-78